sensor_id;sensor_type;location;lat;lon;timestamp;pressure;altitude;pressure_sealevel;temperature;humidity
73267;BME280;61495;53.400;7.608;2023-07-20T00:02:23;101319.63;;;16.25;84.41
73267;BME280;61495;53.400;7.608;2023-07-20T00:04:48;101316.09;;;16.25;83.82
73267;BME280;61495;53.400;7.608;2023-07-20T00:07:13;101310.09;;;16.23;84.99
73267;BME280;61495;53.400;7.608;2023-07-20T00:09:39;101306.81;;;16.21;82.08
73267;BME280;61495;53.400;7.608;2023-07-20T00:12:04;101300.78;;;16.19;83.64
73267;BME280;61495;53.400;7.608;2023-07-20T00:14:30;101301.88;;;16.18;81.96
73267;BME280;61495;53.400;7.608;2023-07-20T00:16:56;101306.44;;;16.17;82.36
73267;BME280;61495;53.400;7.608;2023-07-20T00:19:26;101298.53;;;16.16;82.85
73267;BME280;61495;53.400;7.608;2023-07-20T00:21:52;101297.75;;;16.15;81.98
73267;BME280;61495;53.400;7.608;2023-07-20T00:24:18;101293.59;;;16.12;82.19
73267;BME280;61495;53.400;7.608;2023-07-20T00:26:44;101304.41;;;16.12;84.32
73267;BME280;61495;53.400;7.608;2023-07-20T00:29:10;101308.19;;;16.11;83.16
73267;BME280;61495;53.400;7.608;2023-07-20T00:31:35;101296.78;;;16.09;82.49
73267;BME280;61495;53.400;7.608;2023-07-20T00:34:05;101298.91;;;16.07;82.62
73267;BME280;61495;53.400;7.608;2023-07-20T00:36:31;101299.94;;;16.06;82.44
73267;BME280;61495;53.400;7.608;2023-07-20T00:38:56;101301.59;;;16.07;82.47
73267;BME280;61495;53.400;7.608;2023-07-20T00:41:22;101310.75;;;16.06;82.44
73267;BME280;61495;53.400;7.608;2023-07-20T00:43:47;101306.63;;;16.04;82.14
73267;BME280;61495;53.400;7.608;2023-07-20T00:46:13;101308.75;;;16.02;83.11
73267;BME280;61495;53.400;7.608;2023-07-20T00:48:40;101299.00;;;16.01;82.94
73267;BME280;61495;53.400;7.608;2023-07-20T00:51:06;101311.72;;;16.00;85.95
73267;BME280;61495;53.400;7.608;2023-07-20T00:53:32;101302.97;;;15.98;82.67
73267;BME280;61495;53.400;7.608;2023-07-20T00:55:58;101312.16;;;15.97;82.76
73267;BME280;61495;53.400;7.608;2023-07-20T00:58:23;101304.53;;;15.94;82.92
73267;BME280;61495;53.400;7.608;2023-07-20T01:00:49;101312.63;;;15.94;85.21
73267;BME280;61495;53.400;7.608;2023-07-20T01:03:14;101303.06;;;15.92;84.84
73267;BME280;61495;53.400;7.608;2023-07-20T01:11:16;101315.16;;;15.89;85.51
73267;BME280;61495;53.400;7.608;2023-07-20T01:13:43;101302.72;;;15.88;83.49
73267;BME280;61495;53.400;7.608;2023-07-20T01:16:08;101312.09;;;15.86;83.94
73267;BME280;61495;53.400;7.608;2023-07-20T01:18:34;101316.09;;;15.83;84.58
73267;BME280;61495;53.400;7.608;2023-07-20T01:21:04;101306.34;;;15.82;84.11
73267;BME280;61495;53.400;7.608;2023-07-20T01:23:53;101311.75;;;15.82;84.39
73267;BME280;61495;53.400;7.608;2023-07-20T01:32:00;101315.38;;;15.76;86.70
73267;BME280;61495;53.400;7.608;2023-07-20T01:34:29;101308.31;;;15.75;84.39
73267;BME280;61495;53.400;7.608;2023-07-20T01:36:55;101315.84;;;15.73;84.21
73267;BME280;61495;53.400;7.608;2023-07-20T01:39:37;101311.72;;;15.71;86.02
73267;BME280;61495;53.400;7.608;2023-07-20T01:42:30;101310.06;;;15.70;84.18
73267;BME280;61495;53.400;7.608;2023-07-20T01:45:04;101306.78;;;15.68;83.88
73267;BME280;61495;53.400;7.608;2023-07-20T01:47:55;101306.41;;;15.64;84.97
73267;BME280;61495;53.400;7.608;2023-07-20T01:50:30;101303.06;;;15.62;84.64
73267;BME280;61495;53.400;7.608;2023-07-20T01:53:13;101305.19;;;15.60;84.86
73267;BME280;61495;53.400;7.608;2023-07-20T01:55:56;101301.06;;;15.57;83.15
73267;BME280;61495;53.400;7.608;2023-07-20T01:58:22;101298.59;;;15.56;83.66
73267;BME280;61495;53.400;7.608;2023-07-20T02:00:47;101300.69;;;15.54;83.86
73267;BME280;61495;53.400;7.608;2023-07-20T02:03:13;101299.28;;;15.51;83.28
73267;BME280;61495;53.400;7.608;2023-07-20T02:05:39;101297.88;;;15.49;82.80
73267;BME280;61495;53.400;7.608;2023-07-20T02:08:04;101300.00;;;15.47;83.14
73267;BME280;61495;53.400;7.608;2023-07-20T02:10:30;101301.19;;;15.44;83.10
73267;BME280;61495;53.400;7.608;2023-07-20T02:12:55;101297.53;;;15.39;82.76
73267;BME280;61495;53.400;7.608;2023-07-20T02:15:21;101298.81;;;15.36;82.76
73267;BME280;61495;53.400;7.608;2023-07-20T02:17:47;101293.28;;;15.31;82.47
73267;BME280;61495;53.400;7.608;2023-07-20T02:20:12;101297.28;;;15.29;82.23
73267;BME280;61495;53.400;7.608;2023-07-20T02:22:39;101291.72;;;15.24;82.25
73267;BME280;61495;53.400;7.608;2023-07-20T02:25:05;101294.06;;;15.20;81.94
73267;BME280;61495;53.400;7.608;2023-07-20T02:27:32;101300.34;;;15.14;81.86
73267;BME280;61495;53.400;7.608;2023-07-20T02:29:58;101293.75;;;15.10;81.60
73267;BME280;61495;53.400;7.608;2023-07-20T02:32:23;101294.41;;;15.06;81.16
73267;BME280;61495;53.400;7.608;2023-07-20T02:34:48;101298.00;;;14.99;81.79
73267;BME280;61495;53.400;7.608;2023-07-20T02:37:14;101302.44;;;14.94;80.63
73267;BME280;61495;53.400;7.608;2023-07-20T02:39:39;101300.41;;;14.89;81.62
73267;BME280;61495;53.400;7.608;2023-07-20T02:42:05;101300.28;;;14.84;80.93
73267;BME280;61495;53.400;7.608;2023-07-20T02:44:31;101299.06;;;14.80;81.23
73267;BME280;61495;53.400;7.608;2023-07-20T02:46:56;101299.94;;;14.74;81.83
73267;BME280;61495;53.400;7.608;2023-07-20T02:49:21;101302.50;;;14.69;81.59
73267;BME280;61495;53.400;7.608;2023-07-20T02:51:47;101304.22;;;14.64;80.84
73267;BME280;61495;53.400;7.608;2023-07-20T02:54:12;101302.41;;;14.58;81.25
73267;BME280;61495;53.400;7.608;2023-07-20T02:56:37;101290.59;;;14.52;80.58
73267;BME280;61495;53.400;7.608;2023-07-20T02:59:03;101298.53;;;14.47;81.46
73267;BME280;61495;53.400;7.608;2023-07-20T03:01:29;101303.97;;;14.40;81.16
73267;BME280;61495;53.400;7.608;2023-07-20T03:03:55;101315.19;;;14.37;81.68
73267;BME280;61495;53.400;7.608;2023-07-20T03:06:21;101311.72;;;14.30;81.05
73267;BME280;61495;53.400;7.608;2023-07-20T03:08:46;101317.75;;;14.26;81.18
73267;BME280;61495;53.400;7.608;2023-07-20T03:11:18;101311.16;;;14.22;80.72
73267;BME280;61495;53.400;7.608;2023-07-20T03:13:44;101315.78;;;14.15;80.91
73267;BME280;61495;53.400;7.608;2023-07-20T03:16:11;101325.31;;;14.11;81.95
73267;BME280;61495;53.400;7.608;2023-07-20T03:18:38;101314.38;;;14.06;81.33
73267;BME280;61495;53.400;7.608;2023-07-20T03:21:07;101320.44;;;14.01;81.75
73267;BME280;61495;53.400;7.608;2023-07-20T03:23:33;101326.69;;;13.95;81.25
73267;BME280;61495;53.400;7.608;2023-07-20T03:25:58;101324.63;;;13.90;80.68
73267;BME280;61495;53.400;7.608;2023-07-20T03:28:23;101328.81;;;13.86;81.03
73267;BME280;61495;53.400;7.608;2023-07-20T03:30:56;101328.63;;;13.81;81.46
73267;BME280;61495;53.400;7.608;2023-07-20T03:33:25;101330.13;;;13.77;81.28
73267;BME280;61495;53.400;7.608;2023-07-20T03:35:50;101326.19;;;13.73;81.16
73267;BME280;61495;53.400;7.608;2023-07-20T03:38:16;101321.47;;;13.69;81.35
73267;BME280;61495;53.400;7.608;2023-07-20T03:40:52;101320.84;;;13.67;81.14
73267;BME280;61495;53.400;7.608;2023-07-20T03:43:18;101316.31;;;13.61;81.79
73267;BME280;61495;53.400;7.608;2023-07-20T03:45:44;101314.88;;;13.58;81.29
73267;BME280;61495;53.400;7.608;2023-07-20T03:48:11;101316.34;;;13.54;81.94
73267;BME280;61495;53.400;7.608;2023-07-20T03:50:36;101321.13;;;13.52;81.84
73267;BME280;61495;53.400;7.608;2023-07-20T03:53:02;101325.25;;;13.48;82.04
73267;BME280;61495;53.400;7.608;2023-07-20T03:55:27;101326.53;;;13.46;81.65
73267;BME280;61495;53.400;7.608;2023-07-20T03:57:53;101328.84;;;13.42;81.76
73267;BME280;61495;53.400;7.608;2023-07-20T04:00:18;101333.00;;;13.38;82.11
73267;BME280;61495;53.400;7.608;2023-07-20T04:02:44;101326.16;;;13.35;81.86
73267;BME280;61495;53.400;7.608;2023-07-20T04:05:09;101325.75;;;13.32;82.46
73267;BME280;61495;53.400;7.608;2023-07-20T04:07:35;101320.81;;;13.29;82.18
73267;BME280;61495;53.400;7.608;2023-07-20T04:10:00;101319.13;;;13.28;82.28
73267;BME280;61495;53.400;7.608;2023-07-20T04:12:26;101328.69;;;13.24;82.81
73267;BME280;61495;53.400;7.608;2023-07-20T04:14:51;101320.81;;;13.22;82.44
73267;BME280;61495;53.400;7.608;2023-07-20T04:17:17;101322.91;;;13.20;82.59
73267;BME280;61495;53.400;7.608;2023-07-20T04:19:42;101325.19;;;13.17;82.99
73267;BME280;61495;53.400;7.608;2023-07-20T04:22:08;101322.50;;;13.17;82.74
73267;BME280;61495;53.400;7.608;2023-07-20T04:24:33;101329.34;;;13.13;82.42
73267;BME280;61495;53.400;7.608;2023-07-20T04:26:59;101325.00;;;13.12;84.83
73267;BME280;61495;53.400;7.608;2023-07-20T04:29:24;101332.44;;;13.10;83.12
73267;BME280;61495;53.400;7.608;2023-07-20T04:31:49;101336.59;;;13.06;84.76
73267;BME280;61495;53.400;7.608;2023-07-20T04:34:15;101337.41;;;13.06;83.41
73267;BME280;61495;53.400;7.608;2023-07-20T04:36:40;101337.59;;;13.05;83.14
73267;BME280;61495;53.400;7.608;2023-07-20T04:39:05;101347.75;;;13.03;82.93
73267;BME280;61495;53.400;7.608;2023-07-20T04:41:33;101342.38;;;13.03;82.78
73267;BME280;61495;53.400;7.608;2023-07-20T04:43:58;101347.75;;;13.03;83.10
73267;BME280;61495;53.400;7.608;2023-07-20T04:46:24;101340.72;;;13.02;83.26
73267;BME280;61495;53.400;7.608;2023-07-20T04:48:49;101349.41;;;13.04;84.99
73267;BME280;61495;53.400;7.608;2023-07-20T04:51:14;101360.78;;;13.06;84.37
73267;BME280;61495;53.400;7.608;2023-07-20T04:53:42;101355.59;;;13.04;85.29
73267;BME280;61495;53.400;7.608;2023-07-20T04:56:08;101352.34;;;13.09;85.98
73267;BME280;61495;53.400;7.608;2023-07-20T04:58:33;101348.16;;;13.13;87.38
73267;BME280;61495;53.400;7.608;2023-07-20T05:00:58;101351.88;;;13.18;87.38
73267;BME280;61495;53.400;7.608;2023-07-20T05:03:24;101354.34;;;13.26;85.95
73267;BME280;61495;53.400;7.608;2023-07-20T05:05:49;101353.09;;;13.35;88.24
73267;BME280;61495;53.400;7.608;2023-07-20T05:08:15;101360.47;;;13.53;88.02
73267;BME280;61495;53.400;7.608;2023-07-20T05:10:41;101362.44;;;13.77;89.36
73267;BME280;61495;53.400;7.608;2023-07-20T05:13:06;101362.72;;;14.01;90.96
73267;BME280;61495;53.400;7.608;2023-07-20T05:15:33;101359.44;;;14.23;90.63
73267;BME280;61495;53.400;7.608;2023-07-20T05:17:59;101362.41;;;14.46;89.42
73267;BME280;61495;53.400;7.608;2023-07-20T05:20:25;101354.50;;;14.76;88.76
73267;BME280;61495;53.400;7.608;2023-07-20T05:22:51;101351.31;;;15.04;88.77
73267;BME280;61495;53.400;7.608;2023-07-20T05:25:17;101349.47;;;15.23;87.27
73267;BME280;61495;53.400;7.608;2023-07-20T05:27:45;101351.94;;;15.42;85.86
73267;BME280;61495;53.400;7.608;2023-07-20T05:30:11;101355.03;;;15.64;85.87
73267;BME280;61495;53.400;7.608;2023-07-20T05:32:37;101352.72;;;15.97;85.58
73267;BME280;61495;53.400;7.608;2023-07-20T05:35:02;101357.94;;;16.22;85.28
73267;BME280;61495;53.400;7.608;2023-07-20T05:37:28;101362.13;;;16.48;84.50
73267;BME280;61495;53.400;7.608;2023-07-20T05:39:53;101354.53;;;16.68;82.96
73267;BME280;61495;53.400;7.608;2023-07-20T05:42:19;101353.34;;;16.87;82.97
73267;BME280;61495;53.400;7.608;2023-07-20T05:44:44;101362.06;;;17.12;81.99
73267;BME280;61495;53.400;7.608;2023-07-20T05:47:09;101355.88;;;17.40;81.17
73267;BME280;61495;53.400;7.608;2023-07-20T05:49:35;101356.19;;;17.67;81.01
73267;BME280;61495;53.400;7.608;2023-07-20T05:52:01;101360.94;;;17.88;80.09
73267;BME280;61495;53.400;7.608;2023-07-20T05:54:27;101361.56;;;18.07;78.81
73267;BME280;61495;53.400;7.608;2023-07-20T05:56:53;101365.41;;;18.22;79.02
73267;BME280;61495;53.400;7.608;2023-07-20T05:59:19;101366.44;;;18.50;76.58
73267;BME280;61495;53.400;7.608;2023-07-20T06:01:45;101368.25;;;18.61;75.83
73267;BME280;61495;53.400;7.608;2023-07-20T06:04:12;101369.72;;;18.68;75.79
73267;BME280;61495;53.400;7.608;2023-07-20T06:06:37;101363.78;;;18.88;74.85
73267;BME280;61495;53.400;7.608;2023-07-20T06:09:04;101359.53;;;19.14;74.54
73267;BME280;61495;53.400;7.608;2023-07-20T06:11:30;101358.44;;;19.31;74.25
73267;BME280;61495;53.400;7.608;2023-07-20T06:13:56;101362.94;;;19.42;73.74
73267;BME280;61495;53.400;7.608;2023-07-20T06:16:22;101359.59;;;19.57;73.31
73267;BME280;61495;53.400;7.608;2023-07-20T06:18:47;101363.88;;;19.75;73.21
73267;BME280;61495;53.400;7.608;2023-07-20T06:21:13;101359.31;;;19.54;72.58
73267;BME280;61495;53.400;7.608;2023-07-20T06:23:38;101368.16;;;19.44;73.12
73267;BME280;61495;53.400;7.608;2023-07-20T06:26:06;101365.88;;;19.19;70.40
73267;BME280;61495;53.400;7.608;2023-07-20T06:28:31;101378.38;;;19.20;72.07
73267;BME280;61495;53.400;7.608;2023-07-20T06:31:01;101367.03;;;19.45;71.78
73267;BME280;61495;53.400;7.608;2023-07-20T06:33:27;101374.75;;;19.75;70.83
73267;BME280;61495;53.400;7.608;2023-07-20T06:35:52;101370.63;;;19.94;71.50
73267;BME280;61495;53.400;7.608;2023-07-20T06:38:18;101380.16;;;20.18;70.50
73267;BME280;61495;53.400;7.608;2023-07-20T06:40:46;101378.97;;;20.09;68.87
73267;BME280;61495;53.400;7.608;2023-07-20T06:43:11;101378.63;;;20.27;67.48
73267;BME280;61495;53.400;7.608;2023-07-20T06:45:37;101376.06;;;20.42;68.40
73267;BME280;61495;53.400;7.608;2023-07-20T06:48:02;101380.53;;;20.59;68.54
73267;BME280;61495;53.400;7.608;2023-07-20T06:50:28;101374.06;;;20.65;67.61
73267;BME280;61495;53.400;7.608;2023-07-20T06:52:54;101380.69;;;20.79;67.15
73267;BME280;61495;53.400;7.608;2023-07-20T06:55:19;101383.38;;;20.74;65.96
73267;BME280;61495;53.400;7.608;2023-07-20T06:57:44;101380.13;;;21.09;66.89
73267;BME280;61495;53.400;7.608;2023-07-20T07:00:10;101376.41;;;21.25;63.93
73267;BME280;61495;53.400;7.608;2023-07-20T07:02:36;101367.78;;;21.48;65.73
73267;BME280;61495;53.400;7.608;2023-07-20T07:05:01;101371.41;;;21.64;66.18
73267;BME280;61495;53.400;7.608;2023-07-20T07:07:27;101374.44;;;21.72;64.32
73267;BME280;61495;53.400;7.608;2023-07-20T07:09:52;101369.06;;;21.92;64.87
73267;BME280;61495;53.400;7.608;2023-07-20T07:12:17;101375.34;;;21.93;63.58
73267;BME280;61495;53.400;7.608;2023-07-20T07:14:43;101374.03;;;22.05;63.73
73267;BME280;61495;53.400;7.608;2023-07-20T07:17:09;101373.19;;;22.05;62.80
73267;BME280;61495;53.400;7.608;2023-07-20T07:19:35;101378.63;;;21.95;62.96
73267;BME280;61495;53.400;7.608;2023-07-20T07:22:01;101389.50;;;21.85;62.01
73267;BME280;61495;53.400;7.608;2023-07-20T07:24:27;101382.56;;;21.57;62.71
73267;BME280;61495;53.400;7.608;2023-07-20T07:26:59;101396.94;;;21.42;63.01
73267;BME280;61495;53.400;7.608;2023-07-20T07:29:25;101396.94;;;21.37;62.49
73267;BME280;61495;53.400;7.608;2023-07-20T07:31:51;101406.69;;;21.28;61.30
73267;BME280;61495;53.400;7.608;2023-07-20T07:34:16;101400.19;;;20.97;61.55
73267;BME280;61495;53.400;7.608;2023-07-20T07:36:41;101407.06;;;21.05;61.19
73267;BME280;61495;53.400;7.608;2023-07-20T07:39:07;101395.72;;;21.18;61.86
73267;BME280;61495;53.400;7.608;2023-07-20T07:41:32;101400.50;;;21.48;62.29
73267;BME280;61495;53.400;7.608;2023-07-20T07:43:57;101405.81;;;21.75;62.53
73267;BME280;61495;53.400;7.608;2023-07-20T07:46:23;101401.22;;;21.85;62.72
73267;BME280;61495;53.400;7.608;2023-07-20T07:48:48;101395.56;;;22.02;62.59
73267;BME280;61495;53.400;7.608;2023-07-20T07:51:14;101398.06;;;22.13;60.88
73267;BME280;61495;53.400;7.608;2023-07-20T07:53:40;101401.66;;;22.29;61.78
73267;BME280;61495;53.400;7.608;2023-07-20T07:56:09;101403.31;;;22.50;61.50
73267;BME280;61495;53.400;7.608;2023-07-20T07:58:34;101403.28;;;22.60;59.99
73267;BME280;61495;53.400;7.608;2023-07-20T08:01:00;101411.78;;;22.64;60.01
73267;BME280;61495;53.400;7.608;2023-07-20T08:03:25;101410.47;;;22.72;60.16
73267;BME280;61495;53.400;7.608;2023-07-20T08:05:54;101410.19;;;22.68;59.12
73267;BME280;61495;53.400;7.608;2023-07-20T08:08:20;101420.25;;;22.78;58.27
73267;BME280;61495;53.400;7.608;2023-07-20T08:10:46;101411.00;;;22.68;56.09
73267;BME280;61495;53.400;7.608;2023-07-20T08:13:12;101418.06;;;22.44;55.98
73267;BME280;61495;53.400;7.608;2023-07-20T08:15:38;101427.03;;;22.35;56.37
73267;BME280;61495;53.400;7.608;2023-07-20T08:18:03;101420.75;;;22.34;56.21
73267;BME280;61495;53.400;7.608;2023-07-20T08:20:29;101423.00;;;22.62;56.79
73267;BME280;61495;53.400;7.608;2023-07-20T08:22:54;101419.16;;;22.84;57.09
73267;BME280;61495;53.400;7.608;2023-07-20T08:25:20;101418.63;;;23.07;56.21
73267;BME280;61495;53.400;7.608;2023-07-20T08:27:46;101420.81;;;23.05;54.82
73267;BME280;61495;53.400;7.608;2023-07-20T08:30:12;101426.25;;;23.15;55.57
73267;BME280;61495;53.400;7.608;2023-07-20T08:32:38;101425.16;;;23.21;53.76
73267;BME280;61495;53.400;7.608;2023-07-20T08:35:03;101425.13;;;23.31;53.95
73267;BME280;61495;53.400;7.608;2023-07-20T08:37:29;101427.00;;;23.56;55.07
73267;BME280;61495;53.400;7.608;2023-07-20T08:39:54;101433.28;;;23.66;55.71
73267;BME280;61495;53.400;7.608;2023-07-20T08:42:20;101431.81;;;23.89;55.19
73267;BME280;61495;53.400;7.608;2023-07-20T08:44:48;101428.72;;;24.11;55.53
73267;BME280;61495;53.400;7.608;2023-07-20T08:47:15;101434.94;;;24.21;55.57
73267;BME280;61495;53.400;7.608;2023-07-20T08:49:41;101426.38;;;24.33;52.08
73267;BME280;61495;53.400;7.608;2023-07-20T08:52:08;101423.28;;;24.45;52.12
73267;BME280;61495;53.400;7.608;2023-07-20T08:54:34;101430.59;;;24.59;52.65
73267;BME280;61495;53.400;7.608;2023-07-20T08:57:04;101429.59;;;24.45;51.94
73267;BME280;61495;53.400;7.608;2023-07-20T08:59:30;101431.13;;;24.22;52.09
73267;BME280;61495;53.400;7.608;2023-07-20T09:01:59;101433.00;;;24.27;51.04
73267;BME280;61495;53.400;7.608;2023-07-20T09:04:25;101437.88;;;24.35;51.95
73267;BME280;61495;53.400;7.608;2023-07-20T09:06:50;101429.75;;;24.59;53.13
73267;BME280;61495;53.400;7.608;2023-07-20T09:09:17;101431.44;;;24.94;54.60
73267;BME280;61495;53.400;7.608;2023-07-20T09:11:42;101438.44;;;24.37;49.94
73267;BME280;61495;53.400;7.608;2023-07-20T09:14:09;101445.03;;;24.31;49.10
73267;BME280;61495;53.400;7.608;2023-07-20T09:16:53;101443.03;;;24.42;50.93
73267;BME280;61495;53.400;7.608;2023-07-20T09:19:20;101439.59;;;24.65;51.09
73267;BME280;61495;53.400;7.608;2023-07-20T09:21:50;101442.34;;;24.99;52.10
73267;BME280;61495;53.400;7.608;2023-07-20T09:24:17;101433.53;;;24.68;50.68
73267;BME280;61495;53.400;7.608;2023-07-20T09:26:44;101435.94;;;24.79;50.86
73267;BME280;61495;53.400;7.608;2023-07-20T09:29:10;101446.44;;;24.67;50.65
73267;BME280;61495;53.400;7.608;2023-07-20T09:31:36;101439.03;;;24.24;50.07
73267;BME280;61495;53.400;7.608;2023-07-20T09:34:02;101440.03;;;24.43;47.96
73267;BME280;61495;53.400;7.608;2023-07-20T09:36:28;101443.06;;;24.80;51.27
73267;BME280;61495;53.400;7.608;2023-07-20T09:38:54;101433.22;;;24.74;52.10
73267;BME280;61495;53.400;7.608;2023-07-20T09:41:21;101440.75;;;24.93;52.44
73267;BME280;61495;53.400;7.608;2023-07-20T09:43:46;101443.19;;;24.60;50.33
73267;BME280;61495;53.400;7.608;2023-07-20T09:46:12;101446.91;;;24.36;49.52
73267;BME280;61495;53.400;7.608;2023-07-20T09:48:37;101440.72;;;24.64;50.13
73267;BME280;61495;53.400;7.608;2023-07-20T09:51:03;101440.84;;;24.77;50.94
73267;BME280;61495;53.400;7.608;2023-07-20T09:53:32;101440.13;;;25.01;51.89
73267;BME280;61495;53.400;7.608;2023-07-20T09:55:58;101440.03;;;24.77;50.75
73267;BME280;61495;53.400;7.608;2023-07-20T09:58:25;101436.88;;;24.60;49.69
73267;BME280;61495;53.400;7.608;2023-07-20T10:00:51;101439.34;;;24.61;50.26
73267;BME280;61495;53.400;7.608;2023-07-20T10:03:28;101440.19;;;24.18;47.90
73267;BME280;61495;53.400;7.608;2023-07-20T10:06:06;101440.03;;;24.38;49.28
73267;BME280;61495;53.400;7.608;2023-07-20T10:08:41;101435.28;;;24.54;50.91
73267;BME280;61495;53.400;7.608;2023-07-20T10:11:07;101428.22;;;24.48;50.83
73267;BME280;61495;53.400;7.608;2023-07-20T10:13:37;101442.78;;;24.43;50.74
73267;BME280;61495;53.400;7.608;2023-07-20T10:16:09;101440.72;;;24.59;51.45
73267;BME280;61495;53.400;7.608;2023-07-20T10:18:59;101434.34;;;24.68;53.23
73267;BME280;61495;53.400;7.608;2023-07-20T10:21:27;101433.78;;;24.71;51.76
73267;BME280;61495;53.400;7.608;2023-07-20T10:23:55;101447.31;;;24.09;52.23
73267;BME280;61495;53.400;7.608;2023-07-20T10:26:21;101457.78;;;24.02;53.41
73267;BME280;61495;53.400;7.608;2023-07-20T10:28:46;101455.00;;;24.07;54.92
73267;BME280;61495;53.400;7.608;2023-07-20T10:31:13;101451.53;;;24.45;56.25
73267;BME280;61495;53.400;7.608;2023-07-20T10:33:41;101456.72;;;24.47;56.78
73267;BME280;61495;53.400;7.608;2023-07-20T10:36:06;101448.31;;;24.33;54.71
73267;BME280;61495;53.400;7.608;2023-07-20T10:41:17;101451.91;;;24.28;56.67
73267;BME280;61495;53.400;7.608;2023-07-20T10:43:44;101443.19;;;24.21;56.38
73267;BME280;61495;53.400;7.608;2023-07-20T10:46:13;101450.81;;;24.24;57.14
73267;BME280;61495;53.400;7.608;2023-07-20T10:49:03;101453.47;;;24.40;55.41
73267;BME280;61495;53.400;7.608;2023-07-20T10:51:40;101446.09;;;24.35;55.97
73267;BME280;61495;53.400;7.608;2023-07-20T10:56:47;101455.16;;;24.30;53.20
73267;BME280;61495;53.400;7.608;2023-07-20T11:01:55;101449.06;;;24.44;54.04
73267;BME280;61495;53.400;7.608;2023-07-20T11:04:44;101443.09;;;24.37;51.61
73267;BME280;61495;53.400;7.608;2023-07-20T11:07:17;101434.75;;;24.52;51.68
73267;BME280;61495;53.400;7.608;2023-07-20T11:10:12;101441.44;;;24.36;50.90
73267;BME280;61495;53.400;7.608;2023-07-20T11:12:38;101437.91;;;24.69;52.63
73267;BME280;61495;53.400;7.608;2023-07-20T11:15:04;101439.16;;;24.86;52.71
73267;BME280;61495;53.400;7.608;2023-07-20T11:17:30;101448.88;;;24.69;51.07
73267;BME280;61495;53.400;7.608;2023-07-20T11:19:57;101449.31;;;24.47;50.00
73267;BME280;61495;53.400;7.608;2023-07-20T11:22:23;101449.25;;;24.57;48.61
73267;BME280;61495;53.400;7.608;2023-07-20T11:24:48;101445.00;;;24.75;51.16
73267;BME280;61495;53.400;7.608;2023-07-20T11:27:14;101450.78;;;24.68;50.59
73267;BME280;61495;53.400;7.608;2023-07-20T11:29:40;101447.00;;;24.64;50.93
73267;BME280;61495;53.400;7.608;2023-07-20T11:32:05;101448.72;;;24.50;49.94
73267;BME280;61495;53.400;7.608;2023-07-20T11:34:32;101450.06;;;24.14;50.69
73267;BME280;61495;53.400;7.608;2023-07-20T11:36:58;101452.25;;;24.17;51.05
73267;BME280;61495;53.400;7.608;2023-07-20T11:39:24;101457.16;;;24.15;51.53
73267;BME280;61495;53.400;7.608;2023-07-20T11:41:55;101458.28;;;24.14;49.85
73267;BME280;61495;53.400;7.608;2023-07-20T11:44:26;101450.00;;;24.24;51.00
73267;BME280;61495;53.400;7.608;2023-07-20T11:47:09;101446.44;;;24.28;50.26
73267;BME280;61495;53.400;7.608;2023-07-20T11:49:36;101455.59;;;23.94;48.88
73267;BME280;61495;53.400;7.608;2023-07-20T11:52:06;101453.44;;;23.86;53.12
73267;BME280;61495;53.400;7.608;2023-07-20T11:54:34;101450.44;;;23.87;53.99
73267;BME280;61495;53.400;7.608;2023-07-20T11:57:02;101449.56;;;23.97;54.25
73267;BME280;61495;53.400;7.608;2023-07-20T11:59:28;101468.50;;;23.88;54.29
73267;BME280;61495;53.400;7.608;2023-07-20T12:01:53;101464.94;;;23.93;52.86
73267;BME280;61495;53.400;7.608;2023-07-20T12:04:19;101458.94;;;23.81;52.92
73267;BME280;61495;53.400;7.608;2023-07-20T12:06:47;101460.63;;;23.71;53.37
73267;BME280;61495;53.400;7.608;2023-07-20T12:09:16;101456.78;;;23.67;52.12
73267;BME280;61495;53.400;7.608;2023-07-20T12:11:44;101454.00;;;23.83;52.31
73267;BME280;61495;53.400;7.608;2023-07-20T12:14:10;101463.88;;;23.78;52.51
73267;BME280;61495;53.400;7.608;2023-07-20T12:16:36;101457.88;;;23.71;53.84
73267;BME280;61495;53.400;7.608;2023-07-20T12:19:11;101448.63;;;23.62;53.31
73267;BME280;61495;53.400;7.608;2023-07-20T12:21:38;101447.53;;;23.53;54.79
73267;BME280;61495;53.400;7.608;2023-07-20T12:24:05;101459.06;;;23.45;52.89
73267;BME280;61495;53.400;7.608;2023-07-20T12:26:32;101446.47;;;23.54;54.35
73267;BME280;61495;53.400;7.608;2023-07-20T12:28:57;101443.34;;;23.76;53.93
73267;BME280;61495;53.400;7.608;2023-07-20T12:31:24;101439.00;;;23.70;53.91
73267;BME280;61495;53.400;7.608;2023-07-20T12:33:50;101442.59;;;23.60;52.96
73267;BME280;61495;53.400;7.608;2023-07-20T12:36:17;101439.31;;;23.63;53.17
73267;BME280;61495;53.400;7.608;2023-07-20T12:38:42;101436.09;;;23.41;49.74
73267;BME280;61495;53.400;7.608;2023-07-20T12:41:10;101427.81;;;23.66;52.11
73267;BME280;61495;53.400;7.608;2023-07-20T12:43:37;101424.97;;;23.82;52.67
73267;BME280;61495;53.400;7.608;2023-07-20T12:46:03;101436.25;;;23.75;52.31
73267;BME280;61495;53.400;7.608;2023-07-20T12:48:28;101427.19;;;23.79;52.08
73267;BME280;61495;53.400;7.608;2023-07-20T12:50:54;101418.38;;;23.88;52.04
73267;BME280;61495;53.400;7.608;2023-07-20T12:53:20;101417.22;;;24.04;53.24
73267;BME280;61495;53.400;7.608;2023-07-20T12:55:45;101406.53;;;24.07;53.22
73267;BME280;61495;53.400;7.608;2023-07-20T12:58:11;101418.75;;;24.30;52.90
73267;BME280;61495;53.400;7.608;2023-07-20T13:00:37;101419.25;;;24.37;52.83
73267;BME280;61495;53.400;7.608;2023-07-20T13:03:03;101416.56;;;24.27;52.18
73267;BME280;61495;53.400;7.608;2023-07-20T13:05:31;101423.03;;;24.41;52.07
73267;BME280;61495;53.400;7.608;2023-07-20T13:07:57;101414.91;;;24.31;51.22
73267;BME280;61495;53.400;7.608;2023-07-20T13:10:23;101408.09;;;24.23;52.22